Federal Champlain — V7NK2 — position and weather

sailwx.info

Track history (hours):
 
Tides and Currents Weather Stations Pressure Air Temp Water Temp Dewpoint Dewpoint Depression Visibility Wind Speed Wind Dir Waves Ship Positions

Federal Champlain

Last reported at 2017-Oct-21 22:11 UTC. Time now 2017-Oct-22 10:24 UTC.
Position N 39°23' W 009°54'.

Length 200 m; draft 7.9 m.

Type: Cargo ship. MMSI: 538006468.

Date/timePositionNaut miles runAvg speedWind from/ knotsBaromVisibWave heightAir tempDewpointWater temp
2017-Oct-21 22:11N 39°23' W 009°54'210.9
2017-Oct-21 22:00N 39°21' W 009°54'510.7
2017-Oct-21 21:30N 39°15' W 009°54'510.4
2017-Oct-21 21:00N 39°10' W 009°54'510.2
2017-Oct-21 20:30N 39°05' W 009°53'510.7
2017-Oct-21 20:00N 38°60' W 009°52'510.8
2017-Oct-21 19:30N 38°54' W 009°52'510.5
2017-Oct-21 19:00N 38°49' W 009°52'510.5
2017-Oct-21 18:30N 38°44' W 009°51'510.6
2017-Oct-21 18:00N 38°39' W 009°50'510.7
2017-Oct-21 17:30N 38°34' W 009°49'510.6
2017-Oct-21 17:00N 38°28' W 009°47'510.4
2017-Oct-21 16:30N 38°23' W 009°46'510.5
2017-Oct-21 16:01N 38°18' W 009°44'510.5
2017-Oct-21 15:30N 38°13' W 009°43'611.5
2017-Oct-21 15:00N 38°07' W 009°41'1211.6
2017-Oct-21 14:00N 37°56' W 009°39'612.4
2017-Oct-21 13:31N 37°50' W 009°37'612.7
2017-Oct-21 13:00N 37°44' W 009°35'612.4
2017-Oct-21 12:30N 37°38' W 009°33'5612.4
2017-Oct-21 07:57N 36°44' W 009°10'612.9
2017-Oct-21 07:30N 36°42' W 009°03'913.1
2017-Oct-21 06:50N 36°39' W 008°53'413.1
2017-Oct-21 06:30N 36°38' W 008°48'1213.7
2017-Oct-21 05:38N 36°34' W 008°34'413.8
2017-Oct-21 05:22N 36°33' W 008°29'513.6
2017-Oct-21 04:59N 36°32' W 008°23'1414.0
2017-Oct-21 04:00N 36°28' W 008°07'13213.1
2017-Oct-20 17:59N 35°60' W 005°27'710.9
2017-Oct-20 17:22N 36°02' W 005°19'410.5
2017-Oct-20 17:00N 36°02' W 005°15'  
2017-Oct-18 00:04N 37°00' E 012°51'113.6
2017-Oct-18 00:00N 36°60' E 012°52'713.7
2017-Oct-17 23:30N 36°56' E 012°60'714.0
2017-Oct-17 23:00N 36°54' E 013°08'713.8
2017-Oct-17 22:28N 36°50' E 013°16'613.9
2017-Oct-17 22:00N 36°48' E 013°23'713.9
2017-Oct-17 21:29N 36°44' E 013°31'713.8
2017-Oct-17 21:00N 36°41' E 013°39'713.7
2017-Oct-17 20:30N 36°38' E 013°47'713.7
2017-Oct-17 20:00N 36°36' E 013°54'713.8
2017-Oct-17 19:30N 36°33' E 014°02'713.6
2017-Oct-17 19:00N 36°30' E 014°10'713.6
2017-Oct-17 18:30N 36°27' E 014°17'713.4
2017-Oct-17 18:00N 36°24' E 014°25'713.6
2017-Oct-17 17:30N 36°21' E 014°32'713.4
2017-Oct-17 17:00N 36°19' E 014°40'713.7
2017-Oct-17 16:29N 36°19' E 014°49'713.7
2017-Oct-17 16:00N 36°18' E 014°57'713.7
2017-Oct-17 15:30N 36°18' E 015°06'1513.9
2017-Oct-17 14:24N 36°17' E 015°25'5313.6
2017-Oct-17 10:31N 36°15' E 016°30'014.2
2017-Oct-17 10:29N 36°15' E 016°31'2014.1
2017-Oct-17 09:02N 36°14' E 016°56'013.9
2017-Oct-17 09:00N 36°14' E 016°56'1514.3
2017-Oct-17 07:59N 36°14' E 017°15'5014.0
2017-Oct-17 04:24N 36°11' E 018°17'813.8
2017-Oct-17 03:50N 36°11' E 018°26'513.8
2017-Oct-17 03:30N 36°11' E 018°32'2713.9
2017-Oct-17 01:35N 36°10' E 019°05'214.0
2017-Oct-17 01:29N 36°10' E 019°07'714.1
2017-Oct-17 01:00N 36°10' E 019°15'2214.2
2017-Oct-16 23:28N 36°09' E 019°42'714.4
2017-Oct-16 23:00N 36°09' E 019°50'714.3
2017-Oct-16 22:30N 36°08' E 019°59'814.3
2017-Oct-16 21:55N 36°08' E 020°10'614.4
2017-Oct-16 21:30N 36°08' E 020°17'814.5
2017-Oct-16 20:58N 36°07' E 020°27'1114.6
2017-Oct-16 20:13N 36°07' E 020°40'314.7
2017-Oct-16 20:01N 36°07' E 020°44'1214.6
2017-Oct-16 19:10N 36°06' E 020°59'414.5
2017-Oct-16 18:53N 36°06' E 021°04'33212.7
2017-Oct-15 16:43N 40°01' E 026°02'414.2
2017-Oct-15 16:25N 40°01' E 026°08'13811.1
2017-Oct-15 04:01N 40°56' E 028°54'012.4
2017-Oct-15 04:00N 40°56' E 028°55'41711.2
2017-Oct-13 14:51N 45°07' E 036°29'3 9.3
2017-Oct-13 14:30N 45°10' E 036°28'4 7.5
2017-Oct-13 14:00N 45°14' E 036°28'4 7.5
2017-Oct-13 13:30N 45°18' E 036°29'4 8.9
2017-Oct-13 13:00N 45°20' E 036°34'4 8.3
2017-Oct-13 12:30N 45°22' E 036°40'4 7.1
2017-Oct-13 12:00N 45°25' E 036°41'3 6.2
2017-Oct-13 11:30N 45°28' E 036°41'3 5.2
2017-Oct-13 11:00N 45°31' E 036°40'1 2.0
2017-Oct-13 10:28N 45°31' E 036°39'0 0.0
2017-Oct-13 09:58N 45°31' E 036°39'0 0.0
2017-Oct-13 09:28N 45°31' E 036°39'0 0.0
2017-Oct-13 08:58N 45°31' E 036°39'0 0.0
2017-Oct-13 08:28N 45°31' E 036°39'0 0.0
2017-Oct-13 07:58N 45°31' E 036°39'0 0.0
2017-Oct-13 07:28N 45°31' E 036°39'0 0.0
2017-Oct-13 06:58N 45°31' E 036°39'0 0.0
2017-Oct-13 06:28N 45°31' E 036°39'0 0.0
2017-Oct-13 05:58N 45°31' E 036°39'0 0.0
2017-Oct-13 05:28N 45°31' E 036°39'0 0.0
2017-Oct-13 04:52N 45°31' E 036°39'0 0.0
2017-Oct-13 04:28N 45°31' E 036°39'0 0.1
2017-Oct-13 03:58N 45°31' E 036°39'0 0.2
2017-Oct-13 03:28N 45°31' E 036°39'0 0.1
2017-Oct-13 02:58N 45°31' E 036°39'0 0.0
2017-Oct-13 02:22N 45°31' E 036°39'0 0.0
2017-Oct-13 01:52N 45°31' E 036°39'0 0.0
2017-Oct-13 01:28N 45°31' E 036°39'0 0.0
2017-Oct-13 00:52N 45°31' E 036°39'0 0.0
2017-Oct-13 00:28N 45°31' E 036°39'0 0.0
2017-Oct-12 23:58N 45°31' E 036°39'0 0.0
2017-Oct-12 23:25N 45°31' E 036°39'0 0.0
2017-Oct-12 22:40N 45°31' E 036°39'0 0.0
2017-Oct-12 22:19N 45°31' E 036°39'0 0.0
2017-Oct-12 21:58N 45°31' E 036°39'0 0.0
2017-Oct-12 21:28N 45°31' E 036°39'0 0.0
2017-Oct-12 20:58N 45°31' E 036°39'0 0.0
2017-Oct-12 20:16N 45°31' E 036°39'0 0.0
2017-Oct-12 19:55N 45°31' E 036°39'0 0.0
2017-Oct-12 19:28N 45°31' E 036°39'0 0.0
2017-Oct-12 18:58N 45°31' E 036°39'0 0.0
2017-Oct-12 18:28N 45°31' E 036°39'0 0.0
2017-Oct-12 17:58N 45°31' E 036°39'0 0.0
2017-Oct-12 17:28N 45°31' E 036°39'0 0.0
2017-Oct-12 16:58N 45°31' E 036°39'0 0.1
2017-Oct-12 16:22N 45°31' E 036°39'0 0.0
2017-Oct-12 15:58N 45°31' E 036°39'0 0.1
2017-Oct-12 15:28N 45°31' E 036°39'0 0.1
2017-Oct-12 14:52N 45°31' E 036°39'0 0.0
2017-Oct-12 14:28N 45°31' E 036°39'0 0.0
2017-Oct-12 13:58N 45°31' E 036°39'0 0.1
2017-Oct-12 13:28N 45°31' E 036°39'0 0.3
2017-Oct-12 13:00N 45°31' E 036°39'1 2.1
2017-Oct-12 12:31N 45°31' E 036°40'4 7.1
2017-Oct-12 12:00N 45°35' E 036°40'  
Track history (hours):
 
Tides and Currents Weather Stations Pressure Air Temp Water Temp Dewpoint Dewpoint Depression Visibility Wind Speed Wind Dir Waves Ship Positions

Federal Champlain

Last reported at 2017-Oct-21 22:11 UTC. Time now 2017-Oct-22 10:24 UTC.
Position N 39°23' W 009°54'.

Length 200 m; draft 7.9 m.

Type: Cargo ship. MMSI: 538006468.

Date/timePositionNaut miles runAvg speedWind from/ knotsBaromVisibWave heightAir tempDewpointWater temp
2017-Oct-21 22:11N 39°23' W 009°54'210.9
2017-Oct-21 22:00N 39°21' W 009°54'510.7
2017-Oct-21 21:30N 39°15' W 009°54'510.4
2017-Oct-21 21:00N 39°10' W 009°54'510.2
2017-Oct-21 20:30N 39°05' W 009°53'510.7
2017-Oct-21 20:00N 38°60' W 009°52'510.8
2017-Oct-21 19:30N 38°54' W 009°52'510.5
2017-Oct-21 19:00N 38°49' W 009°52'510.5
2017-Oct-21 18:30N 38°44' W 009°51'510.6
2017-Oct-21 18:00N 38°39' W 009°50'510.7
2017-Oct-21 17:30N 38°34' W 009°49'510.6
2017-Oct-21 17:00N 38°28' W 009°47'510.4
2017-Oct-21 16:30N 38°23' W 009°46'510.5
2017-Oct-21 16:01N 38°18' W 009°44'510.5
2017-Oct-21 15:30N 38°13' W 009°43'611.5
2017-Oct-21 15:00N 38°07' W 009°41'1211.6
2017-Oct-21 14:00N 37°56' W 009°39'612.4
2017-Oct-21 13:31N 37°50' W 009°37'612.7
2017-Oct-21 13:00N 37°44' W 009°35'612.4
2017-Oct-21 12:30N 37°38' W 009°33'5612.4
2017-Oct-21 07:57N 36°44' W 009°10'612.9
2017-Oct-21 07:30N 36°42' W 009°03'913.1
2017-Oct-21 06:50N 36°39' W 008°53'413.1
2017-Oct-21 06:30N 36°38' W 008°48'1213.7
2017-Oct-21 05:38N 36°34' W 008°34'413.8
2017-Oct-21 05:22N 36°33' W 008°29'513.6
2017-Oct-21 04:59N 36°32' W 008°23'1414.0
2017-Oct-21 04:00N 36°28' W 008°07'13213.1
2017-Oct-20 17:59N 35°60' W 005°27'710.9
2017-Oct-20 17:22N 36°02' W 005°19'410.5
2017-Oct-20 17:00N 36°02' W 005°15'  
2017-Oct-18 00:04N 37°00' E 012°51'113.6
2017-Oct-18 00:00N 36°60' E 012°52'713.7
2017-Oct-17 23:30N 36°56' E 012°60'714.0
2017-Oct-17 23:00N 36°54' E 013°08'713.8
2017-Oct-17 22:28N 36°50' E 013°16'613.9
2017-Oct-17 22:00N 36°48' E 013°23'713.9
2017-Oct-17 21:29N 36°44' E 013°31'713.8
2017-Oct-17 21:00N 36°41' E 013°39'713.7
2017-Oct-17 20:30N 36°38' E 013°47'713.7
2017-Oct-17 20:00N 36°36' E 013°54'713.8
2017-Oct-17 19:30N 36°33' E 014°02'713.6
2017-Oct-17 19:00N 36°30' E 014°10'713.6
2017-Oct-17 18:30N 36°27' E 014°17'713.4
2017-Oct-17 18:00N 36°24' E 014°25'713.6
2017-Oct-17 17:30N 36°21' E 014°32'713.4
2017-Oct-17 17:00N 36°19' E 014°40'713.7
2017-Oct-17 16:29N 36°19' E 014°49'713.7
2017-Oct-17 16:00N 36°18' E 014°57'713.7
2017-Oct-17 15:30N 36°18' E 015°06'1513.9
2017-Oct-17 14:24N 36°17' E 015°25'5313.6
2017-Oct-17 10:31N 36°15' E 016°30'014.2
2017-Oct-17 10:29N 36°15' E 016°31'2014.1
2017-Oct-17 09:02N 36°14' E 016°56'013.9
2017-Oct-17 09:00N 36°14' E 016°56'1514.3
2017-Oct-17 07:59N 36°14' E 017°15'5014.0
2017-Oct-17 04:24N 36°11' E 018°17'813.8
2017-Oct-17 03:50N 36°11' E 018°26'513.8
2017-Oct-17 03:30N 36°11' E 018°32'2713.9
2017-Oct-17 01:35N 36°10' E 019°05'214.0
2017-Oct-17 01:29N 36°10' E 019°07'714.1
2017-Oct-17 01:00N 36°10' E 019°15'2214.2
2017-Oct-16 23:28N 36°09' E 019°42'714.4
2017-Oct-16 23:00N 36°09' E 019°50'714.3
2017-Oct-16 22:30N 36°08' E 019°59'814.3
2017-Oct-16 21:55N 36°08' E 020°10'614.4
2017-Oct-16 21:30N 36°08' E 020°17'814.5
2017-Oct-16 20:58N 36°07' E 020°27'1114.6
2017-Oct-16 20:13N 36°07' E 020°40'314.7
2017-Oct-16 20:01N 36°07' E 020°44'1214.6
2017-Oct-16 19:10N 36°06' E 020°59'414.5
2017-Oct-16 18:53N 36°06' E 021°04'33212.7
2017-Oct-15 16:43N 40°01' E 026°02'414.2
2017-Oct-15 16:25N 40°01' E 026°08'13811.1
2017-Oct-15 04:01N 40°56' E 028°54'012.4
2017-Oct-15 04:00N 40°56' E 028°55'41711.2
2017-Oct-13 14:51N 45°07' E 036°29'3 9.3
2017-Oct-13 14:30N 45°10' E 036°28'4 7.5
2017-Oct-13 14:00N 45°14' E 036°28'4 7.5
2017-Oct-13 13:30N 45°18' E 036°29'4 8.9
2017-Oct-13 13:00N 45°20' E 036°34'4 8.3
2017-Oct-13 12:30N 45°22' E 036°40'4 7.1
2017-Oct-13 12:00N 45°25' E 036°41'3 6.2
2017-Oct-13 11:30N 45°28' E 036°41'3 5.2
2017-Oct-13 11:00N 45°31' E 036°40'1 2.0
2017-Oct-13 10:28N 45°31' E 036°39'0 0.0
2017-Oct-13 09:58N 45°31' E 036°39'0 0.0
2017-Oct-13 09:28N 45°31' E 036°39'0 0.0
2017-Oct-13 08:58N 45°31' E 036°39'0 0.0
2017-Oct-13 08:28N 45°31' E 036°39'0 0.0
2017-Oct-13 07:58N 45°31' E 036°39'0 0.0
2017-Oct-13 07:28N 45°31' E 036°39'0 0.0
2017-Oct-13 06:58N 45°31' E 036°39'0 0.0
2017-Oct-13 06:28N 45°31' E 036°39'0 0.0
2017-Oct-13 05:58N 45°31' E 036°39'0 0.0
2017-Oct-13 05:28N 45°31' E 036°39'0 0.0
2017-Oct-13 04:52N 45°31' E 036°39'0 0.0
2017-Oct-13 04:28N 45°31' E 036°39'0 0.1
2017-Oct-13 03:58N 45°31' E 036°39'0 0.2
2017-Oct-13 03:28N 45°31' E 036°39'0 0.1
2017-Oct-13 02:58N 45°31' E 036°39'0 0.0
2017-Oct-13 02:22N 45°31' E 036°39'0 0.0
2017-Oct-13 01:52N 45°31' E 036°39'0 0.0
2017-Oct-13 01:28N 45°31' E 036°39'0 0.0
2017-Oct-13 00:52N 45°31' E 036°39'0 0.0
2017-Oct-13 00:28N 45°31' E 036°39'0 0.0
2017-Oct-12 23:58N 45°31' E 036°39'0 0.0
2017-Oct-12 23:25N 45°31' E 036°39'0 0.0
2017-Oct-12 22:40N 45°31' E 036°39'0 0.0
2017-Oct-12 22:19N 45°31' E 036°39'0 0.0
2017-Oct-12 21:58N 45°31' E 036°39'0 0.0
2017-Oct-12 21:28N 45°31' E 036°39'0 0.0
2017-Oct-12 20:58N 45°31' E 036°39'0 0.0
2017-Oct-12 20:16N 45°31' E 036°39'0 0.0
2017-Oct-12 19:55N 45°31' E 036°39'0 0.0
2017-Oct-12 19:28N 45°31' E 036°39'0 0.0
2017-Oct-12 18:58N 45°31' E 036°39'0 0.0
2017-Oct-12 18:28N 45°31' E 036°39'0 0.0
2017-Oct-12 17:58N 45°31' E 036°39'0 0.0
2017-Oct-12 17:28N 45°31' E 036°39'0 0.0
2017-Oct-12 16:58N 45°31' E 036°39'0 0.1
2017-Oct-12 16:22N 45°31' E 036°39'0 0.0
2017-Oct-12 15:58N 45°31' E 036°39'0 0.1
2017-Oct-12 15:28N 45°31' E 036°39'0 0.1
2017-Oct-12 14:52N 45°31' E 036°39'0 0.0
2017-Oct-12 14:28N 45°31' E 036°39'0 0.0
2017-Oct-12 13:58N 45°31' E 036°39'0 0.1
2017-Oct-12 13:28N 45°31' E 036°39'0 0.3
2017-Oct-12 13:00N 45°31' E 036°39'1 2.1
2017-Oct-12 12:31N 45°31' E 036°40'4 7.1
2017-Oct-12 12:00N 45°35' E 036°40'  

Dump ship's entire track history